createdAt,value
2023-04-15T00:00:46.929Z,7.03
2023-04-15T00:03:34.506Z,7.09
2023-04-15T00:06:20.633Z,7.19
2023-04-15T00:09:05.857Z,7.13
2023-04-15T00:11:51.989Z,7.04
2023-04-15T00:14:36.963Z,7.02
2023-04-15T00:17:22.025Z,7.11
2023-04-15T00:20:07.315Z,7.13
2023-04-15T00:22:52.550Z,7.33
2023-04-15T00:25:38.046Z,7.17
2023-04-15T00:28:23.103Z,7.06
2023-04-15T00:31:08.299Z,6.97
2023-04-15T00:33:53.175Z,7.02
2023-04-15T00:36:38.159Z,7.52
2023-04-15T00:39:23.042Z,7.35
2023-04-15T00:42:08.941Z,7.23
2023-04-15T00:44:53.825Z,7.42
2023-04-15T00:47:42.236Z,7.21
2023-04-15T00:50:27.355Z,7.28
2023-04-15T00:53:12.852Z,7.45
2023-04-15T00:55:58.095Z,7.30
2023-04-15T00:58:42.959Z,7.28
2023-04-15T01:01:29.103Z,7.18
2023-04-15T01:04:15.153Z,7.14
2023-04-15T01:07:00.718Z,7.15
2023-04-15T01:09:46.012Z,6.88
2023-04-15T01:12:33.437Z,7.00
2023-04-15T01:15:18.214Z,6.95
2023-04-15T01:18:03.741Z,6.77
2023-04-15T01:20:48.608Z,7.11
2023-04-15T01:23:37.467Z,7.02
2023-04-15T01:26:23.380Z,6.96
2023-04-15T01:29:08.401Z,6.90
2023-04-15T01:31:55.859Z,6.78
2023-04-15T01:34:40.829Z,6.73
2023-04-15T01:37:27.143Z,6.61
2023-04-15T01:40:12.130Z,6.74
2023-04-15T01:42:57.574Z,6.65
2023-04-15T01:45:42.316Z,6.83
2023-04-15T01:48:27.271Z,6.85
2023-04-15T01:51:12.785Z,6.84
2023-04-15T01:53:58.268Z,6.78
2023-04-15T01:56:43.147Z,6.61
2023-04-15T01:59:28.975Z,6.54
2023-04-15T02:02:14.538Z,6.59
2023-04-15T02:04:59.473Z,6.59
2023-04-15T02:07:45.621Z,6.54
2023-04-15T02:10:31.043Z,6.55
2023-04-15T02:13:16.906Z,6.57
2023-04-15T02:16:02.086Z,6.66
2023-04-15T02:18:48.832Z,6.65
2023-04-15T02:21:35.255Z,6.64
2023-04-15T02:24:20.509Z,6.59
2023-04-15T02:27:05.920Z,6.66
2023-04-15T02:29:51.779Z,6.74
2023-04-15T02:32:37.920Z,6.73
2023-04-15T02:35:26.236Z,6.81
2023-04-15T02:38:12.138Z,6.71
2023-04-15T02:40:57.525Z,6.85
2023-04-15T02:43:42.684Z,6.77
2023-04-15T02:46:27.586Z,6.76
2023-04-15T02:49:13.822Z,6.81
2023-04-15T02:52:00.988Z,6.72
2023-04-15T02:54:46.993Z,6.65
2023-04-15T02:57:31.946Z,6.71
2023-04-15T03:00:17.412Z,6.75
2023-04-15T03:03:06.716Z,6.72
2023-04-15T03:05:52.461Z,6.80
2023-04-15T03:08:37.309Z,6.86
2023-04-15T03:11:22.661Z,6.74
2023-04-15T03:14:07.860Z,6.85
2023-04-15T03:16:52.774Z,6.89
2023-04-15T03:19:37.558Z,6.81
2023-04-15T03:22:22.430Z,6.70
2023-04-15T03:25:07.817Z,6.83
2023-04-15T03:27:52.844Z,6.63
2023-04-15T03:30:38.068Z,6.58
2023-04-15T03:33:23.074Z,6.74
2023-04-15T03:36:08.444Z,6.87
2023-04-15T03:38:53.319Z,6.67
2023-04-15T03:41:38.425Z,6.61
2023-04-15T03:44:23.358Z,6.62
2023-04-15T03:47:08.484Z,6.63
2023-04-15T03:49:54.042Z,6.63
2023-04-15T03:52:38.829Z,6.56
2023-04-15T03:55:23.708Z,6.65
2023-04-15T03:58:09.439Z,6.55
2023-04-15T04:00:54.830Z,6.50
2023-04-15T04:03:39.910Z,6.46
2023-04-15T04:06:25.417Z,6.53
2023-04-15T04:09:10.719Z,6.60
2023-04-15T04:11:56.360Z,6.50
2023-04-15T04:14:41.355Z,6.59
2023-04-15T04:17:27.447Z,6.46
2023-04-15T04:20:12.991Z,6.42
2023-04-15T04:22:58.685Z,6.40
2023-04-15T04:25:43.563Z,6.46
2023-04-15T04:28:28.518Z,6.45
2023-04-15T04:31:13.293Z,6.42
2023-04-15T04:33:58.453Z,6.39
2023-04-15T04:36:43.380Z,6.51
2023-04-15T04:39:28.223Z,6.47
2023-04-15T04:42:13.500Z,6.46
2023-04-15T04:44:58.378Z,6.55
2023-04-15T04:47:43.818Z,6.58
2023-04-15T04:50:28.413Z,6.48
2023-04-15T04:53:13.315Z,6.56
2023-04-15T04:55:58.657Z,6.54
2023-04-15T04:58:43.424Z,6.59
2023-04-15T05:01:28.682Z,6.56
2023-04-15T05:04:13.945Z,6.49
2023-04-15T05:06:59.501Z,6.49
2023-04-15T05:09:44.609Z,6.46
2023-04-15T05:12:29.539Z,6.49
2023-04-15T05:15:14.286Z,6.47
2023-04-15T05:18:00.398Z,6.48
2023-04-15T05:20:45.244Z,6.47
2023-04-15T05:23:30.512Z,6.46
2023-04-15T05:26:16.051Z,6.51
2023-04-15T05:29:01.649Z,6.51
2023-04-15T05:31:47.543Z,6.52
2023-04-15T05:34:32.464Z,6.51
2023-04-15T05:37:17.124Z,6.55
2023-04-15T05:40:02.076Z,6.60
2023-04-15T05:42:46.854Z,6.62
2023-04-15T05:45:31.781Z,6.68
2023-04-15T05:48:16.991Z,6.68
2023-04-15T05:51:02.102Z,6.61
2023-04-15T05:53:47.300Z,6.67
2023-04-15T05:56:32.410Z,6.77
2023-04-15T05:59:18.060Z,6.65
2023-04-15T06:02:06.208Z,6.68
2023-04-15T06:04:51.367Z,6.67
2023-04-15T06:07:37.034Z,6.77
2023-04-15T06:10:21.794Z,6.75
2023-04-15T06:13:08.250Z,6.79
2023-04-15T06:15:53.939Z,6.76
2023-04-15T06:18:39.154Z,6.81
2023-04-15T06:21:24.009Z,6.82
2023-04-15T06:24:09.210Z,6.88
2023-04-15T06:26:54.188Z,6.86
2023-04-15T06:29:39.520Z,6.91
2023-04-15T06:32:24.737Z,6.96
2023-04-15T06:35:09.867Z,6.91
2023-04-15T06:37:54.755Z,6.99
2023-04-15T06:40:39.873Z,7.03
2023-04-15T06:43:26.502Z,7.08
2023-04-15T06:46:11.669Z,7.07
2023-04-15T06:48:56.832Z,7.14
2023-04-15T06:51:42.732Z,7.13
2023-04-15T06:54:28.335Z,7.08
2023-04-15T06:57:13.222Z,7.17
2023-04-15T06:59:58.208Z,7.14
2023-04-15T07:02:44.787Z,7.10
2023-04-15T07:05:30.936Z,7.17
2023-04-15T07:08:16.423Z,7.14
2023-04-15T07:11:01.723Z,7.18
2023-04-15T07:13:47.146Z,7.25
2023-04-15T07:16:32.289Z,7.26
2023-04-15T07:19:18.002Z,7.23
2023-04-15T07:22:04.386Z,7.28
2023-04-15T07:24:49.334Z,7.32
2023-04-15T07:27:34.282Z,7.34
2023-04-15T07:30:19.442Z,7.37
2023-04-15T07:33:04.622Z,7.33
2023-04-15T07:35:49.960Z,7.35
2023-04-15T07:38:34.978Z,7.40
2023-04-15T07:41:20.389Z,7.34
2023-04-15T07:44:05.678Z,7.35
2023-04-15T07:46:51.115Z,7.36
2023-04-15T07:49:36.490Z,7.36
2023-04-15T07:52:21.468Z,7.48
2023-04-15T07:55:11.164Z,7.51
2023-04-15T07:57:56.479Z,7.53
2023-04-15T08:00:41.903Z,7.47
2023-04-15T08:03:27.563Z,7.52
2023-04-15T08:06:13.319Z,7.63
2023-04-15T08:08:58.133Z,7.57
2023-04-15T08:11:43.337Z,7.62
2023-04-15T08:14:29.097Z,7.70
2023-04-15T08:17:13.815Z,7.69
2023-04-15T08:19:59.646Z,7.66
2023-04-15T08:22:44.674Z,7.74
2023-04-15T08:25:30.155Z,7.72
2023-04-15T08:28:16.072Z,7.77
2023-04-15T08:31:02.341Z,7.76
2023-04-15T08:33:47.582Z,7.83
2023-04-15T08:36:33.966Z,7.81
2023-04-15T08:39:21.439Z,7.92
2023-04-15T08:42:10.861Z,7.85
2023-04-15T08:44:56.498Z,7.79
2023-04-15T08:47:48.119Z,7.79
2023-04-15T08:50:33.280Z,7.78
2023-04-15T08:53:20.721Z,7.79
2023-04-15T08:56:13.156Z,7.84
2023-04-15T08:59:03.946Z,7.90
2023-04-15T09:01:54.538Z,7.87
2023-04-15T09:04:41.356Z,7.76
2023-04-15T09:07:27.297Z,7.76
2023-04-15T09:10:15.794Z,7.86
2023-04-15T09:13:02.773Z,7.84
2023-04-15T09:15:49.082Z,7.87
2023-04-15T09:18:36.871Z,7.93
2023-04-15T09:21:23.821Z,7.92
2023-04-15T09:24:08.653Z,8.04
2023-04-15T09:26:55.605Z,8.11
2023-04-15T09:29:41.800Z,8.23
2023-04-15T09:32:27.658Z,8.33
2023-04-15T09:35:13.069Z,8.30
2023-04-15T09:38:09.645Z,8.37
2023-04-15T09:40:55.027Z,8.44
2023-04-15T09:43:40.744Z,8.58
2023-04-15T09:46:46.589Z,8.50
2023-04-15T09:49:31.758Z,8.53
2023-04-15T09:52:17.325Z,8.60
2023-04-15T09:55:02.573Z,8.61
2023-04-15T09:57:48.008Z,8.67
2023-04-15T10:00:33.338Z,8.62
2023-04-15T10:03:30.074Z,8.69
2023-04-15T10:06:16.872Z,8.61
2023-04-15T10:09:02.178Z,8.67
2023-04-15T10:11:49.420Z,8.66
2023-04-15T10:14:38.543Z,8.77
2023-04-15T10:17:27.693Z,8.73
2023-04-15T10:20:16.093Z,8.74
2023-04-15T10:23:02.056Z,8.84
2023-04-15T10:25:47.470Z,8.81
2023-04-15T10:28:32.671Z,8.71
2023-04-15T10:31:19.922Z,8.75
2023-04-15T10:34:06.733Z,8.75
2023-04-15T10:36:54.912Z,8.84
2023-04-15T10:39:42.309Z,8.76
2023-04-15T10:42:33.796Z,8.67
2023-04-15T10:45:19.243Z,8.66
2023-04-15T10:48:08.359Z,8.60
2023-04-15T10:50:57.756Z,8.72
2023-04-15T10:53:43.026Z,8.68
2023-04-15T10:56:31.115Z,8.67
2023-04-15T10:59:16.968Z,8.54
2023-04-15T11:02:04.039Z,8.56
2023-04-15T11:05:00.280Z,8.57
2023-04-15T11:07:54.712Z,8.55
2023-04-15T11:10:39.528Z,8.55
2023-04-15T11:13:27.116Z,8.59
2023-04-15T11:16:15.267Z,8.62
2023-04-15T11:19:01.580Z,8.69
2023-04-15T11:21:47.023Z,8.64
2023-04-15T11:24:33.122Z,8.74
2023-04-15T11:27:23.702Z,8.74
2023-04-15T11:30:22.713Z,8.72
2023-04-15T11:33:11.025Z,8.78
2023-04-15T11:35:55.783Z,8.82
2023-04-15T11:38:46.839Z,8.90
2023-04-15T11:41:31.842Z,8.89
2023-04-15T11:44:18.254Z,8.90
2023-04-15T11:47:22.526Z,8.89
2023-04-15T11:50:23.712Z,8.91
2023-04-15T11:53:11.070Z,9.05
2023-04-15T11:55:56.341Z,9.07
2023-04-15T11:58:44.801Z,9.24
2023-04-15T12:01:39.673Z,9.36
2023-04-15T12:04:25.928Z,9.33
2023-04-15T12:07:12.529Z,9.44
2023-04-15T12:09:58.134Z,9.61
2023-04-15T12:12:43.099Z,9.69
2023-04-15T12:15:28.289Z,9.86
2023-04-15T12:18:19.238Z,10.00
2023-04-15T12:21:11.549Z,10.04
2023-04-15T12:23:58.054Z,10.14
2023-04-15T12:26:49.482Z,10.22
2023-04-15T12:29:40.112Z,10.22
2023-04-15T12:32:25.244Z,10.37
2023-04-15T12:35:10.089Z,10.39
2023-04-15T12:37:54.872Z,10.54
2023-04-15T12:40:39.802Z,10.50
2023-04-15T12:43:25.662Z,10.48
2023-04-15T12:46:10.842Z,10.53
2023-04-15T12:48:57.289Z,10.53
2023-04-15T12:51:42.745Z,10.54
2023-04-15T12:54:29.207Z,10.58
2023-04-15T12:57:15.423Z,10.53
2023-04-15T13:00:00.282Z,10.73
2023-04-15T13:02:45.730Z,11.01
2023-04-15T13:05:30.905Z,11.16
2023-04-15T13:08:16.294Z,11.30
2023-04-15T13:11:01.615Z,11.31
2023-04-15T13:13:47.103Z,11.29
2023-04-15T13:16:32.992Z,11.32
2023-04-15T13:19:18.069Z,11.47
2023-04-15T13:22:03.426Z,11.59
2023-04-15T13:24:48.485Z,11.61
2023-04-15T13:27:33.980Z,11.71
2023-04-15T13:30:19.167Z,11.75
2023-04-15T13:33:05.071Z,11.80
2023-04-15T13:35:50.358Z,11.83
2023-04-15T13:38:35.308Z,11.82
2023-04-15T13:41:21.441Z,11.90
2023-04-15T13:44:07.388Z,11.87
2023-04-15T13:46:52.923Z,11.84
2023-04-15T13:49:38.095Z,11.83
2023-04-15T13:52:23.523Z,11.80
2023-04-15T13:55:19.062Z,11.73
2023-04-15T13:58:06.295Z,11.72
2023-04-15T14:00:51.469Z,11.73
2023-04-15T14:03:38.518Z,11.65
2023-04-15T14:06:23.476Z,11.62
2023-04-15T14:09:08.958Z,11.59
2023-04-15T14:11:53.732Z,11.62
2023-04-15T14:14:40.110Z,11.54
2023-04-15T14:17:25.565Z,11.52
2023-04-15T14:20:10.929Z,11.54
2023-04-15T14:22:55.990Z,11.62
2023-04-15T14:25:41.206Z,11.64
2023-04-15T14:28:26.772Z,11.55
2023-04-15T14:31:11.837Z,11.63
2023-04-15T14:33:59.747Z,11.55
2023-04-15T14:36:45.125Z,11.69
2023-04-15T14:39:30.008Z,11.72
2023-04-15T14:42:14.934Z,11.69
2023-04-15T14:45:03.170Z,11.77
2023-04-15T14:47:49.880Z,11.70
2023-04-15T14:50:35.793Z,11.65
2023-04-15T14:53:24.010Z,11.62
2023-04-15T14:56:11.508Z,11.68
2023-04-15T14:58:56.187Z,11.60
2023-04-15T15:01:41.180Z,11.68
2023-04-15T15:04:27.348Z,11.72
2023-04-15T15:07:12.287Z,11.75
2023-04-15T15:09:57.386Z,11.72
2023-04-15T15:12:42.623Z,11.69
2023-04-15T15:15:29.073Z,11.72
2023-04-15T15:18:14.330Z,11.72
2023-04-15T15:21:01.133Z,11.68
2023-04-15T15:23:48.267Z,11.67
2023-04-15T15:26:33.626Z,11.68
2023-04-15T15:29:18.890Z,11.63
2023-04-15T15:32:04.017Z,11.63
2023-04-15T15:34:49.793Z,11.68
2023-04-15T15:37:35.921Z,11.68
2023-04-15T15:40:21.691Z,11.59
2023-04-15T15:43:06.951Z,11.55
2023-04-15T15:45:55.232Z,11.54
2023-04-15T15:48:43.346Z,11.45
2023-04-15T15:51:32.138Z,11.41
2023-04-15T15:54:18.719Z,11.44
2023-04-15T15:57:03.964Z,11.35
2023-04-15T15:59:51.135Z,11.38
2023-04-15T16:03:04.265Z,11.34
2023-04-15T16:05:42.618Z,11.32
2023-04-15T16:08:27.574Z,11.34
2023-04-15T16:11:14.495Z,11.34
2023-04-15T16:13:59.407Z,11.36
2023-04-15T16:16:45.887Z,11.39
2023-04-15T16:19:31.273Z,11.38
2023-04-15T16:22:22.313Z,11.39
2023-04-15T16:25:15.034Z,11.56
2023-04-15T16:28:08.344Z,11.52
2023-04-15T16:30:57.981Z,11.49
2023-04-15T16:33:44.272Z,11.50
2023-04-15T16:36:31.755Z,11.49
2023-04-15T16:39:16.923Z,11.41
2023-04-15T16:42:04.144Z,11.42
2023-04-15T16:44:51.460Z,11.37
2023-04-15T16:47:36.632Z,11.26
2023-04-15T16:50:21.420Z,11.32
2023-04-15T16:53:07.544Z,11.33
2023-04-15T16:55:53.286Z,11.33
2023-04-15T16:58:39.504Z,11.34
2023-04-15T17:01:24.923Z,11.26
2023-04-15T17:04:13.914Z,11.27
2023-04-15T17:06:58.909Z,11.28
2023-04-15T17:09:44.427Z,11.33
2023-04-15T17:12:30.296Z,11.35
2023-04-15T17:15:18.276Z,11.33
2023-04-15T17:18:06.009Z,11.28
2023-04-15T17:20:50.772Z,11.28
2023-04-15T17:23:37.169Z,11.22
2023-04-15T17:26:23.696Z,11.18
2023-04-15T17:29:09.579Z,11.17
2023-04-15T17:31:55.147Z,11.13
2023-04-15T17:34:49.951Z,11.10
2023-04-15T17:37:36.728Z,11.08
2023-04-15T17:40:23.388Z,11.05
2023-04-15T17:43:12.715Z,11.11
2023-04-15T17:45:58.727Z,11.05
2023-04-15T17:48:43.766Z,11.07
2023-04-15T17:51:31.890Z,11.05
2023-04-15T17:54:19.087Z,11.01
2023-04-15T17:57:04.309Z,11.02
2023-04-15T17:59:49.769Z,11.02
2023-04-15T18:02:37.095Z,11.02
2023-04-15T18:05:22.440Z,10.90
2023-04-15T18:08:07.424Z,10.87
2023-04-15T18:10:53.119Z,10.82
2023-04-15T18:13:38.088Z,10.85
2023-04-15T18:16:22.991Z,10.86
2023-04-15T18:19:08.054Z,10.85
2023-04-15T18:21:53.459Z,10.80
2023-04-15T18:24:42.095Z,10.77
2023-04-15T18:27:27.444Z,10.72
2023-04-15T18:30:14.057Z,10.79
2023-04-15T18:33:00.650Z,10.74
2023-04-15T18:35:47.535Z,10.69
2023-04-15T18:38:33.618Z,10.71
2023-04-15T18:41:26.006Z,10.66
2023-04-15T18:44:13.098Z,10.68
2023-04-15T18:46:58.644Z,10.67
2023-04-15T18:49:44.016Z,10.63
2023-04-15T18:52:30.276Z,10.62
2023-04-15T18:55:19.196Z,10.55
2023-04-15T18:58:10.050Z,10.60
2023-04-15T19:00:56.287Z,10.55
2023-04-15T19:03:43.871Z,10.58
2023-04-15T19:09:29.042Z,10.58
2023-04-15T19:12:19.535Z,10.50
2023-04-15T19:15:05.405Z,10.48
2023-04-15T19:17:50.392Z,10.50
2023-04-15T19:20:39.974Z,10.61
2023-04-15T19:23:27.025Z,10.57
2023-04-15T19:26:14.926Z,10.55
2023-04-15T19:28:59.766Z,10.48
2023-04-15T19:31:46.782Z,10.45
2023-04-15T19:34:31.925Z,10.43
2023-04-15T19:37:17.608Z,10.43
2023-04-15T19:40:03.300Z,10.41
2023-04-15T19:42:49.831Z,10.29
2023-04-15T19:45:37.252Z,10.30
2023-04-15T19:48:24.971Z,10.23
2023-04-15T19:51:09.906Z,10.26
2023-04-15T19:54:00.846Z,10.35
2023-04-15T19:56:47.875Z,10.27
2023-04-15T19:59:33.398Z,10.25
2023-04-15T20:02:18.693Z,10.25
2023-04-15T20:05:04.739Z,10.21
2023-04-15T20:07:52.918Z,10.11
2023-04-15T20:10:38.279Z,10.17
2023-04-15T20:13:23.505Z,10.20
2023-04-15T20:16:13.286Z,10.21
2023-04-15T20:19:08.416Z,10.20
2023-04-15T20:21:54.252Z,10.16
2023-04-15T20:24:39.065Z,10.19
2023-04-15T20:27:23.957Z,10.10
2023-04-15T20:30:13.998Z,10.21
2023-04-15T20:32:59.754Z,10.11
2023-04-15T20:35:47.084Z,10.06
2023-04-15T20:38:32.258Z,10.11
2023-04-15T20:41:17.468Z,10.06
2023-04-15T20:44:10.253Z,10.04
2023-04-15T20:46:56.326Z,10.04
2023-04-15T20:49:41.297Z,9.95
2023-04-15T20:52:26.329Z,10.06
2023-04-15T20:55:13.184Z,9.92
2023-04-15T20:57:59.284Z,9.94
2023-04-15T21:00:45.284Z,9.91
2023-04-15T21:03:30.733Z,9.90
2023-04-15T21:06:16.229Z,9.96
2023-04-15T21:09:01.193Z,9.94
2023-04-15T21:14:39.507Z,9.95
2023-04-15T21:17:24.858Z,9.95
2023-04-15T21:20:13.388Z,9.82
2023-04-15T21:23:00.814Z,9.85
2023-04-15T21:25:45.881Z,9.77
2023-04-15T21:28:32.178Z,9.82
2023-04-15T21:31:18.535Z,9.86
2023-04-15T21:34:07.834Z,9.86
2023-04-15T21:36:55.165Z,9.84
2023-04-15T21:39:40.548Z,9.80
2023-04-15T21:42:26.422Z,9.85
2023-04-15T21:45:11.491Z,9.74
2023-04-15T21:48:07.619Z,9.75
2023-04-15T21:51:01.564Z,9.80
2023-04-15T21:53:49.994Z,9.67
2023-04-15T21:56:35.279Z,9.65
2023-04-15T21:59:21.735Z,9.67
2023-04-15T22:02:06.921Z,9.64
2023-04-15T22:04:52.233Z,9.65
2023-04-15T22:07:37.598Z,9.61
2023-04-15T22:10:23.041Z,9.62
2023-04-15T22:13:11.304Z,9.57
2023-04-15T22:15:56.906Z,9.60
2023-04-15T22:18:41.705Z,9.50
2023-04-15T22:21:27.229Z,9.52
2023-04-15T22:24:33.960Z,9.42
2023-04-15T22:27:17.747Z,9.44
2023-04-15T22:30:05.238Z,9.38
2023-04-15T22:32:50.627Z,9.39
2023-04-15T22:35:38.507Z,9.42
2023-04-15T22:38:24.490Z,9.38
2023-04-15T22:41:09.484Z,9.38
2023-04-15T22:43:54.321Z,9.34
2023-04-15T22:46:39.394Z,9.30
2023-04-15T22:49:26.291Z,9.29
2023-04-15T22:52:17.115Z,9.30
2023-04-15T22:55:08.932Z,9.29
2023-04-15T22:57:54.322Z,9.19
2023-04-15T23:00:39.333Z,9.13
2023-04-15T23:03:24.816Z,9.17
2023-04-15T23:06:10.255Z,9.12
2023-04-15T23:08:55.807Z,9.07
2023-04-15T23:11:41.157Z,9.02
2023-04-15T23:14:27.910Z,9.00
2023-04-15T23:17:13.734Z,8.98
2023-04-15T23:19:58.571Z,8.89
2023-04-15T23:22:43.632Z,8.80
2023-04-15T23:25:28.618Z,8.81
2023-04-15T23:28:14.933Z,8.74
2023-04-15T23:31:00.708Z,8.70
2023-04-15T23:33:45.645Z,8.64
2023-04-15T23:36:31.850Z,8.60
2023-04-15T23:39:16.963Z,8.64
2023-04-15T23:42:01.935Z,8.67
2023-04-15T23:44:46.707Z,8.60
2023-04-15T23:47:31.583Z,8.60
2023-04-15T23:50:16.386Z,8.59
2023-04-15T23:53:02.722Z,8.51
2023-04-15T23:55:48.605Z,8.51
2023-04-15T23:58:34.590Z,8.41
